Liberty of The Seas — C6VQ8 — position and weather

sailwx.info

Track history (hours):
 
Tides and Currents Weather Stations Pressure Air Temp Water Temp Dewpoint Dewpoint Depression Visibility Wind Speed Wind Dir Waves Ship Positions

Liberty of The Seas

Last reported at 2020-Jan-19 16:26 UTC. Time now 2020-Jan-19 16:47 UTC.
Position N 29°19' W 094°48'.

Type: Passenger vessel. MMSI: 309436000.

Date/timePositionNaut miles runAvg speedWind from/ knotsBaromVisibWave heightAir tempDewpointWater temp
2020-Jan-19 16:26N 29°19' W 094°48'0 0.0
2020-Jan-19 12:59N 29°19' W 094°48'0 0.0
2020-Jan-19 10:59N 29°19' W 094°48'0 0.0
2020-Jan-19 10:29N 29°19' W 094°48'0 0.0
2020-Jan-19 09:59N 29°19' W 094°48'9 6.4
2020-Jan-19 08:30N 29°18' W 094°37'3115.1
2020-Jan-19 06:29N 29°01' W 094°09'3919.3
2020-Jan-19 04:29N 28°38' W 093°33'  
2020-Jan-16 02:13N 19°07' W 080°49'1014.5
2020-Jan-16 01:30N 19°09' W 081°00'2411.8
2020-Jan-15 23:30N 19°18' W 081°24'0 0.1
2020-Jan-15 22:31N 19°18' W 081°23'0 0.1
2020-Jan-15 20:00N 19°18' W 081°24'0 0.0
2020-Jan-15 19:30N 19°18' W 081°24'0 0.0
2020-Jan-15 17:59N 19°18' W 081°24'32315.8
2020-Jan-14 21:30N 20°29' W 086°59'0 0.0
2020-Jan-14 21:00N 20°29' W 086°59'0 0.0
2020-Jan-14 19:30N 20°29' W 086°59'0 0.0
2020-Jan-14 18:30N 20°29' W 086°59'0 0.0
2020-Jan-14 18:00N 20°29' W 086°59'0 0.0
2020-Jan-14 17:30N 20°29' W 086°59'0 0.0
2020-Jan-14 17:00N 20°29' W 086°59'0 0.0
2020-Jan-14 15:00N 20°29' W 086°59'0 0.0
2020-Jan-14 14:30N 20°29' W 086°59'0 0.0
2020-Jan-14 13:30N 20°29' W 086°59'7 4.8
2020-Jan-14 12:00N 20°36' W 086°56'815.5
2020-Jan-14 11:30N 20°42' W 086°51'58218.8
2020-Jan-13 04:33N 28°27' W 093°16'418.5
2020-Jan-13 04:19N 28°29' W 093°20'618.5
2020-Jan-13 04:00N 28°32' W 093°26'1418.8
2020-Jan-13 03:15N 28°41' W 093°39'2318.7
2020-Jan-13 02:00N 28°54' W 094°01'816.4
2020-Jan-13 01:30N 28°59' W 094°08'1616.0
2020-Jan-13 00:30N 29°08' W 094°24'24 5.9
2020-Jan-12 20:28N 29°19' W 094°48'0 0.0
2020-Jan-12 18:28N 29°19' W 094°48'0 0.0
2020-Jan-12 17:28N 29°19' W 094°48'0 0.0
2020-Jan-12 16:28N 29°19' W 094°48'0 0.0
2020-Jan-12 15:58N 29°19' W 094°48'0 0.0
2020-Jan-12 15:28N 29°19' W 094°48'0 0.1
2020-Jan-12 12:30N 29°19' W 094°48'6 6.0
2020-Jan-12 11:30N 29°20' W 094°41'1312.6
2020-Jan-12 10:29N 29°13' W 094°29'2616.4
2020-Jan-12 08:54N 28°58' W 094°05'1416.6
2020-Jan-12 08:04N 28°50' W 093°52'62019.2
2020-Jan-10 23:43N 20°42' W 086°51'522.9
2020-Jan-10 23:30N 20°38' W 086°55'10 1.6
2020-Jan-10 17:29N 20°29' W 086°59'0 0.0
2020-Jan-10 16:59N 20°29' W 086°59'0 0.0
2020-Jan-10 15:23N 20°29' W 086°59'0 0.1
2020-Jan-10 12:30N 20°29' W 086°59'15 7.2
2020-Jan-10 10:29N 20°16' W 087°05'  
Track history (hours):
 
Tides and Currents Weather Stations Pressure Air Temp Water Temp Dewpoint Dewpoint Depression Visibility Wind Speed Wind Dir Waves Ship Positions

Liberty of The Seas

Last reported at 2020-Jan-19 16:26 UTC. Time now 2020-Jan-19 16:47 UTC.
Position N 29°19' W 094°48'.

Type: Passenger vessel. MMSI: 309436000.

Date/timePositionNaut miles runAvg speedWind from/ knotsBaromVisibWave heightAir tempDewpointWater temp
2020-Jan-19 16:26N 29°19' W 094°48'0 0.0
2020-Jan-19 12:59N 29°19' W 094°48'0 0.0
2020-Jan-19 10:59N 29°19' W 094°48'0 0.0
2020-Jan-19 10:29N 29°19' W 094°48'0 0.0
2020-Jan-19 09:59N 29°19' W 094°48'9 6.4
2020-Jan-19 08:30N 29°18' W 094°37'3115.1
2020-Jan-19 06:29N 29°01' W 094°09'3919.3
2020-Jan-19 04:29N 28°38' W 093°33'  
2020-Jan-16 02:13N 19°07' W 080°49'1014.5
2020-Jan-16 01:30N 19°09' W 081°00'2411.8
2020-Jan-15 23:30N 19°18' W 081°24'0 0.1
2020-Jan-15 22:31N 19°18' W 081°23'0 0.1
2020-Jan-15 20:00N 19°18' W 081°24'0 0.0
2020-Jan-15 19:30N 19°18' W 081°24'0 0.0
2020-Jan-15 17:59N 19°18' W 081°24'32315.8
2020-Jan-14 21:30N 20°29' W 086°59'0 0.0
2020-Jan-14 21:00N 20°29' W 086°59'0 0.0
2020-Jan-14 19:30N 20°29' W 086°59'0 0.0
2020-Jan-14 18:30N 20°29' W 086°59'0 0.0
2020-Jan-14 18:00N 20°29' W 086°59'0 0.0
2020-Jan-14 17:30N 20°29' W 086°59'0 0.0
2020-Jan-14 17:00N 20°29' W 086°59'0 0.0
2020-Jan-14 15:00N 20°29' W 086°59'0 0.0
2020-Jan-14 14:30N 20°29' W 086°59'0 0.0
2020-Jan-14 13:30N 20°29' W 086°59'7 4.8
2020-Jan-14 12:00N 20°36' W 086°56'815.5
2020-Jan-14 11:30N 20°42' W 086°51'58218.8
2020-Jan-13 04:33N 28°27' W 093°16'418.5
2020-Jan-13 04:19N 28°29' W 093°20'618.5
2020-Jan-13 04:00N 28°32' W 093°26'1418.8
2020-Jan-13 03:15N 28°41' W 093°39'2318.7
2020-Jan-13 02:00N 28°54' W 094°01'816.4
2020-Jan-13 01:30N 28°59' W 094°08'1616.0
2020-Jan-13 00:30N 29°08' W 094°24'24 5.9
2020-Jan-12 20:28N 29°19' W 094°48'0 0.0
2020-Jan-12 18:28N 29°19' W 094°48'0 0.0
2020-Jan-12 17:28N 29°19' W 094°48'0 0.0
2020-Jan-12 16:28N 29°19' W 094°48'0 0.0
2020-Jan-12 15:58N 29°19' W 094°48'0 0.0
2020-Jan-12 15:28N 29°19' W 094°48'0 0.1
2020-Jan-12 12:30N 29°19' W 094°48'6 6.0
2020-Jan-12 11:30N 29°20' W 094°41'1312.6
2020-Jan-12 10:29N 29°13' W 094°29'2616.4
2020-Jan-12 08:54N 28°58' W 094°05'1416.6
2020-Jan-12 08:04N 28°50' W 093°52'62019.2
2020-Jan-10 23:43N 20°42' W 086°51'522.9
2020-Jan-10 23:30N 20°38' W 086°55'10 1.6
2020-Jan-10 17:29N 20°29' W 086°59'0 0.0
2020-Jan-10 16:59N 20°29' W 086°59'0 0.0
2020-Jan-10 15:23N 20°29' W 086°59'0 0.1
2020-Jan-10 12:30N 20°29' W 086°59'15 7.2
2020-Jan-10 10:29N 20°16' W 087°05'  

Dump ship's entire track history